Minneola, KS (67865)

1:36 AM CST on January 27, 2015 (GMT -0600)
APRSWXNET Bloom KS US | Change Station
CLOSE
Current Station
Personal Weather Station
Location: Minneola, KS
Elevation: 2578 ft
Nearby Weather Stations

Elev 2578 ft 37.49 °N, 99.96 °W | Updated 34 minutes ago

Clear
Clear
44 °F
Feels Like 39 °F
N
10
Wind Variable Wind from West
Gusts 0.0 mph

Today
High -- | Low -- °F
--% Chance of Precip.
Yesterday
High -- | Low -- °F
Precip. -- in
7:47 AM 5:58 PM
Waxing Crescent, 51% visible
Pressure 30.11 in
Visibility 10.0 miles
Clouds Clear
Windchill 39 °F
Dew Point 31 °F
Humidity 60%
Rainfall -999.00 in
Snow Depth Not available.
UV 0 out of 12
Pollen 2.30 out of 12
Air Quality Not available.
Flu Activity Not available.
METAR KDDC 270652Z AUTO 25006KT 10SM CLR 07/M02 A3014 RMK AO2 SLP194 T00721017

More Conditions Fewer Conditions

Pressure 30.11 in
Visibility 10.0 miles
Clouds Clear
Windchill 39 °F
Dew Point 31 °F
Humidity 60%
Rainfall -999.00 in
Snow Depth Not available.
UV 0 out of 12
Pollen 2.30 out of 12
Air Quality Not available.
Flu Activity Not available.
METAR KDDC 270652Z AUTO 25006KT 10SM CLR 07/M02 A3014 RMK AO2 SLP194 T00721017

More Conditions Fewer Conditions

10-Day Weather Forecast

Almanac

Astronomy

Jan. 27, 2015 Rise Set
Actual Time
Civil Twilight
Nautical Twilight
Astronomical Twilight
Moon
Length of Visible Light
Length of Day
Tomorrow will be .
, % of the Moon is Illuminated

Today's Extremes

State Highs State Lows

Community

WunderPhotos

Upload Photos

1,790,543 photos uploaded!

WunderBlogs® & News

Nearby

Air Quality

  Air Quality AQ Index Pollutant
Not available.

Snow Depth

Station Depth Elevation

Earthquake Activity

City Distance Mag. Time & Date
Minimum magnitude displayed is 2.5.

Coastal Water Temperatures

Place Temperature

Nearby Weather Stations